sensor_id;sensor_type;location;lat;lon;timestamp;P1;durP1;ratioP1;P2;durP2;ratioP2
52033;SDS011;38045;52.988;6.536;2023-03-23T00:01:47;10.32;;;9.32;;
52033;SDS011;38045;52.988;6.536;2023-03-23T00:04:15;15.15;;;10.93;;
52033;SDS011;38045;52.988;6.536;2023-03-23T00:06:41;10.80;;;9.27;;
52033;SDS011;38045;52.988;6.536;2023-03-23T00:09:10;10.27;;;9.27;;
52033;SDS011;38045;52.988;6.536;2023-03-23T00:11:37;11.15;;;10.00;;
52033;SDS011;38045;52.988;6.536;2023-03-23T00:14:04;9.63;;;8.65;;
52033;SDS011;38045;52.988;6.536;2023-03-23T00:16:30;9.10;;;8.15;;
52033;SDS011;38045;52.988;6.536;2023-03-23T00:18:58;10.85;;;9.52;;
52033;SDS011;38045;52.988;6.536;2023-03-23T00:21:27;12.10;;;8.68;;
52033;SDS011;38045;52.988;6.536;2023-03-23T00:24:10;11.13;;;9.77;;
52033;SDS011;38045;52.988;6.536;2023-03-23T00:26:46;13.57;;;8.23;;
52033;SDS011;38045;52.988;6.536;2023-03-23T00:31:40;20.98;;;7.60;;
52033;SDS011;38045;52.988;6.536;2023-03-23T00:34:11;10.77;;;7.63;;
52033;SDS011;38045;52.988;6.536;2023-03-23T00:36:44;9.45;;;8.55;;
52033;SDS011;38045;52.988;6.536;2023-03-23T00:39:14;9.60;;;8.70;;
52033;SDS011;38045;52.988;6.536;2023-03-23T00:41:41;9.45;;;8.55;;
52033;SDS011;38045;52.988;6.536;2023-03-23T00:44:07;9.93;;;6.95;;
52033;SDS011;38045;52.988;6.536;2023-03-23T00:46:34;11.50;;;7.20;;
52033;SDS011;38045;52.988;6.536;2023-03-23T00:49:13;9.93;;;6.30;;
52033;SDS011;38045;52.988;6.536;2023-03-23T00:51:40;11.55;;;6.85;;
52033;SDS011;38045;52.988;6.536;2023-03-23T00:54:06;7.38;;;4.35;;
52033;SDS011;38045;52.988;6.536;2023-03-23T00:56:33;11.98;;;8.07;;
52033;SDS011;38045;52.988;6.536;2023-03-23T00:58:59;7.75;;;6.60;;
52033;SDS011;38045;52.988;6.536;2023-03-23T01:01:25;6.93;;;6.10;;
52033;SDS011;38045;52.988;6.536;2023-03-23T01:03:51;7.53;;;4.60;;
52033;SDS011;38045;52.988;6.536;2023-03-23T01:06:25;8.70;;;7.05;;
52033;SDS011;38045;52.988;6.536;2023-03-23T01:08:52;8.85;;;6.68;;
52033;SDS011;38045;52.988;6.536;2023-03-23T01:11:18;7.05;;;5.40;;
52033;SDS011;38045;52.988;6.536;2023-03-23T01:13:44;6.95;;;4.85;;
52033;SDS011;38045;52.988;6.536;2023-03-23T01:16:11;5.85;;;5.32;;
52033;SDS011;38045;52.988;6.536;2023-03-23T01:18:37;4.68;;;3.97;;
52033;SDS011;38045;52.988;6.536;2023-03-23T01:21:04;6.15;;;5.55;;
52033;SDS011;38045;52.988;6.536;2023-03-23T01:23:32;5.10;;;4.57;;
52033;SDS011;38045;52.988;6.536;2023-03-23T01:26:02;6.28;;;4.38;;
52033;SDS011;38045;52.988;6.536;2023-03-23T01:28:28;7.75;;;5.57;;
52033;SDS011;38045;52.988;6.536;2023-03-23T01:30:58;6.97;;;4.60;;
52033;SDS011;38045;52.988;6.536;2023-03-23T01:33:25;12.63;;;6.03;;
52033;SDS011;38045;52.988;6.536;2023-03-23T01:35:51;11.00;;;5.13;;
52033;SDS011;38045;52.988;6.536;2023-03-23T01:38:16;7.88;;;5.88;;
52033;SDS011;38045;52.988;6.536;2023-03-23T01:40:42;4.35;;;2.78;;
52033;SDS011;38045;52.988;6.536;2023-03-23T01:43:12;8.68;;;5.07;;
52033;SDS011;38045;52.988;6.536;2023-03-23T01:45:40;5.85;;;4.15;;
52033;SDS011;38045;52.988;6.536;2023-03-23T01:48:16;3.67;;;2.67;;
52033;SDS011;38045;52.988;6.536;2023-03-23T01:51:12;4.10;;;3.72;;
52033;SDS011;38045;52.988;6.536;2023-03-23T01:53:48;5.53;;;3.53;;
52033;SDS011;38045;52.988;6.536;2023-03-23T01:56:22;6.63;;;4.10;;
52033;SDS011;38045;52.988;6.536;2023-03-23T01:58:54;7.00;;;3.85;;
52033;SDS011;38045;52.988;6.536;2023-03-23T02:01:20;5.55;;;3.20;;
52033;SDS011;38045;52.988;6.536;2023-03-23T02:03:46;3.67;;;2.95;;
52033;SDS011;38045;52.988;6.536;2023-03-23T02:06:13;6.97;;;4.00;;
52033;SDS011;38045;52.988;6.536;2023-03-23T02:08:39;6.70;;;4.55;;
52033;SDS011;38045;52.988;6.536;2023-03-23T02:11:15;3.95;;;3.65;;
52033;SDS011;38045;52.988;6.536;2023-03-23T02:13:43;6.85;;;3.28;;
52033;SDS011;38045;52.988;6.536;2023-03-23T02:18:58;5.00;;;3.75;;
52033;SDS011;38045;52.988;6.536;2023-03-23T02:29:36;7.18;;;3.45;;
52033;SDS011;38045;52.988;6.536;2023-03-23T02:34:51;4.15;;;3.85;;
52033;SDS011;38045;52.988;6.536;2023-03-23T02:37:25;3.22;;;2.67;;
52033;SDS011;38045;52.988;6.536;2023-03-23T02:39:57;6.93;;;3.70;;
52033;SDS011;38045;52.988;6.536;2023-03-23T02:42:38;9.15;;;4.35;;
52033;SDS011;38045;52.988;6.536;2023-03-23T02:45:07;3.65;;;3.10;;
52033;SDS011;38045;52.988;6.536;2023-03-23T02:47:35;4.72;;;2.38;;
52033;SDS011;38045;52.988;6.536;2023-03-23T02:50:04;5.32;;;3.75;;
52033;SDS011;38045;52.988;6.536;2023-03-23T02:52:33;4.25;;;3.72;;
52033;SDS011;38045;52.988;6.536;2023-03-23T02:55:02;6.47;;;4.50;;
52033;SDS011;38045;52.988;6.536;2023-03-23T02:57:29;4.45;;;2.88;;
52033;SDS011;38045;52.988;6.536;2023-03-23T02:59:55;4.03;;;3.13;;
52033;SDS011;38045;52.988;6.536;2023-03-23T03:02:31;6.15;;;2.90;;
52033;SDS011;38045;52.988;6.536;2023-03-23T03:05:20;2.50;;;2.30;;
52033;SDS011;38045;52.988;6.536;2023-03-23T03:13:22;5.20;;;4.18;;
52033;SDS011;38045;52.988;6.536;2023-03-23T03:16:04;3.13;;;2.85;;
52033;SDS011;38045;52.988;6.536;2023-03-23T03:21:28;6.57;;;2.63;;
52033;SDS011;38045;52.988;6.536;2023-03-23T03:23:58;4.32;;;3.88;;
52033;SDS011;38045;52.988;6.536;2023-03-23T03:26:26;2.60;;;2.40;;
52033;SDS011;38045;52.988;6.536;2023-03-23T03:28:54;5.20;;;2.65;;
52033;SDS011;38045;52.988;6.536;2023-03-23T03:31:21;6.30;;;4.00;;
52033;SDS011;38045;52.988;6.536;2023-03-23T03:33:56;5.07;;;2.58;;
52033;SDS011;38045;52.988;6.536;2023-03-23T03:36:26;4.63;;;2.72;;
52033;SDS011;38045;52.988;6.536;2023-03-23T03:39:00;6.63;;;3.10;;
52033;SDS011;38045;52.988;6.536;2023-03-23T03:41:30;4.55;;;3.25;;
52033;SDS011;38045;52.988;6.536;2023-03-23T03:43:56;4.45;;;2.78;;
52033;SDS011;38045;52.988;6.536;2023-03-23T03:46:22;7.43;;;3.15;;
52033;SDS011;38045;52.988;6.536;2023-03-23T03:48:51;6.10;;;3.30;;
52033;SDS011;38045;52.988;6.536;2023-03-23T03:51:17;9.00;;;4.53;;
52033;SDS011;38045;52.988;6.536;2023-03-23T03:53:43;5.25;;;4.75;;
52033;SDS011;38045;52.988;6.536;2023-03-23T03:56:08;4.55;;;3.60;;
52033;SDS011;38045;52.988;6.536;2023-03-23T03:58:34;5.03;;;4.05;;
52033;SDS011;38045;52.988;6.536;2023-03-23T04:01:01;6.22;;;4.45;;
52033;SDS011;38045;52.988;6.536;2023-03-23T04:03:27;6.72;;;3.25;;
52033;SDS011;38045;52.988;6.536;2023-03-23T04:05:53;5.00;;;2.83;;
52033;SDS011;38045;52.988;6.536;2023-03-23T04:08:20;7.40;;;4.78;;
52033;SDS011;38045;52.988;6.536;2023-03-23T04:10:49;7.53;;;4.22;;
52033;SDS011;38045;52.988;6.536;2023-03-23T04:13:15;3.53;;;3.22;;
52033;SDS011;38045;52.988;6.536;2023-03-23T04:15:41;10.43;;;4.47;;
52033;SDS011;38045;52.988;6.536;2023-03-23T04:18:08;4.32;;;3.15;;
52033;SDS011;38045;52.988;6.536;2023-03-23T04:20:33;5.32;;;4.75;;
52033;SDS011;38045;52.988;6.536;2023-03-23T04:23:00;5.28;;;4.75;;
52033;SDS011;38045;52.988;6.536;2023-03-23T04:25:27;6.05;;;4.63;;
52033;SDS011;38045;52.988;6.536;2023-03-23T04:27:53;4.00;;;3.50;;
52033;SDS011;38045;52.988;6.536;2023-03-23T04:30:19;6.68;;;4.13;;
52033;SDS011;38045;52.988;6.536;2023-03-23T04:32:47;6.00;;;4.57;;
52033;SDS011;38045;52.988;6.536;2023-03-23T04:35:18;8.60;;;4.28;;
52033;SDS011;38045;52.988;6.536;2023-03-23T04:37:45;6.37;;;4.17;;
52033;SDS011;38045;52.988;6.536;2023-03-23T04:40:12;5.00;;;3.63;;
52033;SDS011;38045;52.988;6.536;2023-03-23T04:42:40;7.72;;;1.70;;
52033;SDS011;38045;52.988;6.536;2023-03-23T04:45:11;5.97;;;3.08;;
52033;SDS011;38045;52.988;6.536;2023-03-23T04:47:46;6.43;;;4.53;;
52033;SDS011;38045;52.988;6.536;2023-03-23T04:50:22;8.20;;;3.38;;
52033;SDS011;38045;52.988;6.536;2023-03-23T04:52:51;4.95;;;2.60;;
52033;SDS011;38045;52.988;6.536;2023-03-23T04:55:19;7.53;;;2.40;;
52033;SDS011;38045;52.988;6.536;2023-03-23T04:57:46;2.47;;;2.17;;
52033;SDS011;38045;52.988;6.536;2023-03-23T05:00:12;5.55;;;2.50;;
52033;SDS011;38045;52.988;6.536;2023-03-23T05:02:41;3.85;;;3.47;;
52033;SDS011;38045;52.988;6.536;2023-03-23T05:05:08;5.60;;;3.00;;
52033;SDS011;38045;52.988;6.536;2023-03-23T05:07:37;7.82;;;2.15;;
52033;SDS011;38045;52.988;6.536;2023-03-23T05:10:03;5.30;;;2.33;;
52033;SDS011;38045;52.988;6.536;2023-03-23T05:12:30;4.20;;;2.30;;
52033;SDS011;38045;52.988;6.536;2023-03-23T05:14:56;5.20;;;2.00;;
52033;SDS011;38045;52.988;6.536;2023-03-23T05:17:22;7.82;;;2.67;;
52033;SDS011;38045;52.988;6.536;2023-03-23T05:19:52;6.97;;;1.85;;
52033;SDS011;38045;52.988;6.536;2023-03-23T05:22:18;9.88;;;3.13;;
52033;SDS011;38045;52.988;6.536;2023-03-23T05:24:46;7.47;;;1.98;;
52033;SDS011;38045;52.988;6.536;2023-03-23T05:27:12;2.90;;;1.30;;
52033;SDS011;38045;52.988;6.536;2023-03-23T05:29:39;6.05;;;1.85;;
52033;SDS011;38045;52.988;6.536;2023-03-23T05:32:06;4.15;;;1.30;;
52033;SDS011;38045;52.988;6.536;2023-03-23T05:34:35;8.57;;;2.97;;
52033;SDS011;38045;52.988;6.536;2023-03-23T05:37:02;7.32;;;2.70;;
52033;SDS011;38045;52.988;6.536;2023-03-23T05:39:29;7.15;;;3.08;;
52033;SDS011;38045;52.988;6.536;2023-03-23T05:41:56;5.97;;;2.90;;
52033;SDS011;38045;52.988;6.536;2023-03-23T05:44:22;10.55;;;2.88;;
52033;SDS011;38045;52.988;6.536;2023-03-23T05:46:48;4.50;;;2.10;;
52033;SDS011;38045;52.988;6.536;2023-03-23T05:49:14;11.07;;;3.35;;
52033;SDS011;38045;52.988;6.536;2023-03-23T05:51:43;5.28;;;2.20;;
52033;SDS011;38045;52.988;6.536;2023-03-23T05:54:10;12.45;;;2.90;;
52033;SDS011;38045;52.988;6.536;2023-03-23T05:56:36;13.05;;;3.67;;
52033;SDS011;38045;52.988;6.536;2023-03-23T05:59:02;10.25;;;2.50;;
52033;SDS011;38045;52.988;6.536;2023-03-23T06:01:28;5.57;;;1.70;;
52033;SDS011;38045;52.988;6.536;2023-03-23T06:03:54;7.78;;;2.97;;
52033;SDS011;38045;52.988;6.536;2023-03-23T06:08:54;9.93;;;3.75;;
52033;SDS011;38045;52.988;6.536;2023-03-23T06:11:21;14.73;;;3.17;;
52033;SDS011;38045;52.988;6.536;2023-03-23T06:13:49;9.70;;;3.35;;
52033;SDS011;38045;52.988;6.536;2023-03-23T06:16:15;11.90;;;2.78;;
52033;SDS011;38045;52.988;6.536;2023-03-23T06:18:41;3.42;;;2.13;;
52033;SDS011;38045;52.988;6.536;2023-03-23T06:21:07;10.73;;;3.00;;
52033;SDS011;38045;52.988;6.536;2023-03-23T06:23:34;16.20;;;2.92;;
52033;SDS011;38045;52.988;6.536;2023-03-23T06:26:00;12.95;;;3.88;;
52033;SDS011;38045;52.988;6.536;2023-03-23T06:28:28;5.00;;;1.92;;
52033;SDS011;38045;52.988;6.536;2023-03-23T06:30:54;16.85;;;3.40;;
52033;SDS011;38045;52.988;6.536;2023-03-23T06:33:20;14.32;;;3.00;;
52033;SDS011;38045;52.988;6.536;2023-03-23T06:35:46;13.35;;;3.25;;
52033;SDS011;38045;52.988;6.536;2023-03-23T06:38:13;9.50;;;3.38;;
52033;SDS011;38045;52.988;6.536;2023-03-23T06:40:39;10.45;;;4.30;;
52033;SDS011;38045;52.988;6.536;2023-03-23T06:43:04;9.70;;;2.40;;
52033;SDS011;38045;52.988;6.536;2023-03-23T06:45:30;11.25;;;3.05;;
52033;SDS011;38045;52.988;6.536;2023-03-23T06:47:58;8.45;;;2.78;;
52033;SDS011;38045;52.988;6.536;2023-03-23T06:50:23;10.73;;;3.83;;
52033;SDS011;38045;52.988;6.536;2023-03-23T06:52:49;16.13;;;4.07;;
52033;SDS011;38045;52.988;6.536;2023-03-23T06:55:16;17.45;;;4.15;;
52033;SDS011;38045;52.988;6.536;2023-03-23T06:57:43;18.30;;;5.97;;
52033;SDS011;38045;52.988;6.536;2023-03-23T07:00:10;15.52;;;3.28;;
52033;SDS011;38045;52.988;6.536;2023-03-23T07:02:38;10.75;;;3.97;;
52033;SDS011;38045;52.988;6.536;2023-03-23T07:05:05;14.38;;;3.47;;
52033;SDS011;38045;52.988;6.536;2023-03-23T07:07:32;15.32;;;3.13;;
52033;SDS011;38045;52.988;6.536;2023-03-23T07:09:58;10.68;;;3.00;;
52033;SDS011;38045;52.988;6.536;2023-03-23T07:12:23;16.38;;;4.82;;
52033;SDS011;38045;52.988;6.536;2023-03-23T07:14:49;18.75;;;5.25;;
52033;SDS011;38045;52.988;6.536;2023-03-23T07:17:14;17.60;;;5.05;;
52033;SDS011;38045;52.988;6.536;2023-03-23T07:19:40;21.92;;;6.53;;
52033;SDS011;38045;52.988;6.536;2023-03-23T07:22:06;23.13;;;5.60;;
52033;SDS011;38045;52.988;6.536;2023-03-23T07:24:33;15.75;;;4.20;;
52033;SDS011;38045;52.988;6.536;2023-03-23T07:26:59;23.63;;;5.78;;
52033;SDS011;38045;52.988;6.536;2023-03-23T07:29:25;7.78;;;2.70;;
52033;SDS011;38045;52.988;6.536;2023-03-23T07:31:51;13.45;;;5.07;;
52033;SDS011;38045;52.988;6.536;2023-03-23T07:34:18;20.80;;;5.65;;
52033;SDS011;38045;52.988;6.536;2023-03-23T07:36:45;17.58;;;5.75;;
52033;SDS011;38045;52.988;6.536;2023-03-23T07:39:11;15.18;;;3.28;;
52033;SDS011;38045;52.988;6.536;2023-03-23T07:41:38;17.90;;;4.25;;
52033;SDS011;38045;52.988;6.536;2023-03-23T07:44:04;14.02;;;4.22;;
52033;SDS011;38045;52.988;6.536;2023-03-23T07:46:30;9.93;;;4.07;;
52033;SDS011;38045;52.988;6.536;2023-03-23T07:48:57;16.48;;;6.60;;
52033;SDS011;38045;52.988;6.536;2023-03-23T07:51:23;14.93;;;5.05;;
52033;SDS011;38045;52.988;6.536;2023-03-23T07:53:49;26.13;;;6.88;;
52033;SDS011;38045;52.988;6.536;2023-03-23T07:56:16;12.20;;;5.05;;
52033;SDS011;38045;52.988;6.536;2023-03-23T07:58:45;13.98;;;4.30;;
52033;SDS011;38045;52.988;6.536;2023-03-23T08:01:11;16.02;;;4.45;;
52033;SDS011;38045;52.988;6.536;2023-03-23T08:03:37;13.95;;;4.32;;
52033;SDS011;38045;52.988;6.536;2023-03-23T08:06:03;15.38;;;3.53;;
52033;SDS011;38045;52.988;6.536;2023-03-23T08:08:30;21.02;;;4.70;;
52033;SDS011;38045;52.988;6.536;2023-03-23T08:10:56;24.10;;;5.03;;
52033;SDS011;38045;52.988;6.536;2023-03-23T08:13:22;17.77;;;4.55;;
52033;SDS011;38045;52.988;6.536;2023-03-23T08:15:47;18.05;;;4.03;;
52033;SDS011;38045;52.988;6.536;2023-03-23T08:18:13;24.20;;;6.03;;
52033;SDS011;38045;52.988;6.536;2023-03-23T08:20:39;24.70;;;4.05;;
52033;SDS011;38045;52.988;6.536;2023-03-23T08:23:05;28.15;;;8.13;;
52033;SDS011;38045;52.988;6.536;2023-03-23T08:25:31;24.83;;;6.22;;
52033;SDS011;38045;52.988;6.536;2023-03-23T08:27:57;19.45;;;4.72;;
52033;SDS011;38045;52.988;6.536;2023-03-23T08:30:26;23.48;;;6.95;;
52033;SDS011;38045;52.988;6.536;2023-03-23T08:32:55;14.20;;;4.22;;
52033;SDS011;38045;52.988;6.536;2023-03-23T08:35:21;23.70;;;6.40;;
52033;SDS011;38045;52.988;6.536;2023-03-23T08:37:48;16.48;;;4.65;;
52033;SDS011;38045;52.988;6.536;2023-03-23T08:40:18;20.48;;;6.28;;
52033;SDS011;38045;52.988;6.536;2023-03-23T08:42:46;16.65;;;5.63;;
52033;SDS011;38045;52.988;6.536;2023-03-23T08:45:14;19.20;;;4.70;;
52033;SDS011;38045;52.988;6.536;2023-03-23T08:47:41;24.08;;;5.78;;
52033;SDS011;38045;52.988;6.536;2023-03-23T08:50:09;31.30;;;6.40;;
52033;SDS011;38045;52.988;6.536;2023-03-23T08:52:37;22.58;;;5.85;;
52033;SDS011;38045;52.988;6.536;2023-03-23T08:55:03;19.65;;;2.97;;
52033;SDS011;38045;52.988;6.536;2023-03-23T08:57:29;17.92;;;3.97;;
52033;SDS011;38045;52.988;6.536;2023-03-23T08:59:55;23.73;;;4.68;;
52033;SDS011;38045;52.988;6.536;2023-03-23T09:02:25;22.65;;;6.80;;
52033;SDS011;38045;52.988;6.536;2023-03-23T09:04:51;20.00;;;4.75;;
52033;SDS011;38045;52.988;6.536;2023-03-23T09:07:18;27.02;;;6.55;;
52033;SDS011;38045;52.988;6.536;2023-03-23T09:09:43;30.13;;;5.72;;
52033;SDS011;38045;52.988;6.536;2023-03-23T09:12:09;17.80;;;5.22;;
52033;SDS011;38045;52.988;6.536;2023-03-23T09:14:36;21.17;;;5.90;;
52033;SDS011;38045;52.988;6.536;2023-03-23T09:17:02;7.95;;;4.55;;
52033;SDS011;38045;52.988;6.536;2023-03-23T09:19:29;25.50;;;7.00;;
52033;SDS011;38045;52.988;6.536;2023-03-23T09:21:58;18.52;;;4.30;;
52033;SDS011;38045;52.988;6.536;2023-03-23T09:24:24;22.33;;;5.70;;
52033;SDS011;38045;52.988;6.536;2023-03-23T09:26:50;16.90;;;3.92;;
52033;SDS011;38045;52.988;6.536;2023-03-23T09:29:16;18.85;;;4.18;;
52033;SDS011;38045;52.988;6.536;2023-03-23T09:31:43;9.93;;;3.90;;
52033;SDS011;38045;52.988;6.536;2023-03-23T09:34:11;27.17;;;6.22;;
52033;SDS011;38045;52.988;6.536;2023-03-23T09:36:38;15.38;;;3.78;;
52033;SDS011;38045;52.988;6.536;2023-03-23T09:39:05;23.70;;;7.20;;
52033;SDS011;38045;52.988;6.536;2023-03-23T09:47:10;15.40;;;4.55;;
52033;SDS011;38045;52.988;6.536;2023-03-23T09:54:40;24.30;;;6.05;;
52033;SDS011;38045;52.988;6.536;2023-03-23T09:57:28;14.82;;;3.47;;
52033;SDS011;38045;52.988;6.536;2023-03-23T10:00:36;18.52;;;5.15;;
52033;SDS011;38045;52.988;6.536;2023-03-23T10:03:18;16.20;;;4.00;;
52033;SDS011;38045;52.988;6.536;2023-03-23T10:05:49;23.20;;;5.57;;
52033;SDS011;38045;52.988;6.536;2023-03-23T10:08:21;16.75;;;5.70;;
52033;SDS011;38045;52.988;6.536;2023-03-23T10:10:58;20.83;;;4.88;;
52033;SDS011;38045;52.988;6.536;2023-03-23T10:13:42;11.68;;;3.42;;
52033;SDS011;38045;52.988;6.536;2023-03-23T10:16:14;10.73;;;3.08;;
52033;SDS011;38045;52.988;6.536;2023-03-23T10:18:49;24.23;;;4.45;;
52033;SDS011;38045;52.988;6.536;2023-03-23T10:21:36;12.25;;;4.03;;
52033;SDS011;38045;52.988;6.536;2023-03-23T10:24:09;12.45;;;2.75;;
52033;SDS011;38045;52.988;6.536;2023-03-23T10:26:57;15.93;;;6.85;;
52033;SDS011;38045;52.988;6.536;2023-03-23T10:29:31;19.02;;;5.85;;
52033;SDS011;38045;52.988;6.536;2023-03-23T10:34:45;14.68;;;4.88;;
52033;SDS011;38045;52.988;6.536;2023-03-23T10:39:55;20.67;;;4.22;;
52033;SDS011;38045;52.988;6.536;2023-03-23T10:44:54;22.08;;;4.20;;
52033;SDS011;38045;52.988;6.536;2023-03-23T10:47:21;16.55;;;4.15;;
52033;SDS011;38045;52.988;6.536;2023-03-23T10:49:49;22.10;;;5.38;;
52033;SDS011;38045;52.988;6.536;2023-03-23T10:52:29;11.50;;;4.70;;
52033;SDS011;38045;52.988;6.536;2023-03-23T10:57:41;8.10;;;3.17;;
52033;SDS011;38045;52.988;6.536;2023-03-23T11:05:37;11.10;;;3.30;;
52033;SDS011;38045;52.988;6.536;2023-03-23T11:08:17;11.25;;;3.13;;
52033;SDS011;38045;52.988;6.536;2023-03-23T11:10:49;9.18;;;2.80;;
52033;SDS011;38045;52.988;6.536;2023-03-23T11:13:18;14.77;;;3.58;;
52033;SDS011;38045;52.988;6.536;2023-03-23T11:15:46;10.73;;;2.60;;
52033;SDS011;38045;52.988;6.536;2023-03-23T11:18:18;6.72;;;2.25;;
52033;SDS011;38045;52.988;6.536;2023-03-23T11:21:04;14.05;;;3.53;;
52033;SDS011;38045;52.988;6.536;2023-03-23T11:23:36;6.57;;;2.88;;
52033;SDS011;38045;52.988;6.536;2023-03-23T11:28:53;15.98;;;4.95;;
52033;SDS011;38045;52.988;6.536;2023-03-23T11:31:29;7.32;;;2.60;;
52033;SDS011;38045;52.988;6.536;2023-03-23T11:33:58;15.35;;;2.95;;
52033;SDS011;38045;52.988;6.536;2023-03-23T11:36:35;11.32;;;3.38;;
52033;SDS011;38045;52.988;6.536;2023-03-23T11:39:03;10.98;;;3.90;;
52033;SDS011;38045;52.988;6.536;2023-03-23T11:41:55;9.27;;;2.45;;
52033;SDS011;38045;52.988;6.536;2023-03-23T11:44:23;7.78;;;3.70;;
52033;SDS011;38045;52.988;6.536;2023-03-23T11:47:04;16.90;;;4.07;;
52033;SDS011;38045;52.988;6.536;2023-03-23T11:52:37;8.43;;;3.05;;
52033;SDS011;38045;52.988;6.536;2023-03-23T11:55:15;6.75;;;2.13;;
52033;SDS011;38045;52.988;6.536;2023-03-23T11:58:07;4.68;;;1.45;;
52033;SDS011;38045;52.988;6.536;2023-03-23T12:00:38;11.93;;;4.30;;
52033;SDS011;38045;52.988;6.536;2023-03-23T12:06:32;8.15;;;3.38;;
52033;SDS011;38045;52.988;6.536;2023-03-23T12:09:23;3.53;;;1.52;;
52033;SDS011;38045;52.988;6.536;2023-03-23T12:22:06;5.45;;;2.08;;
52033;SDS011;38045;52.988;6.536;2023-03-23T12:28:01;7.50;;;2.80;;
52033;SDS011;38045;52.988;6.536;2023-03-23T12:33:07;8.60;;;4.03;;
52033;SDS011;38045;52.988;6.536;2023-03-23T12:38:38;13.68;;;4.18;;
52033;SDS011;38045;52.988;6.536;2023-03-23T12:44:06;5.68;;;2.30;;
52033;SDS011;38045;52.988;6.536;2023-03-23T12:49:38;8.18;;;2.83;;
52033;SDS011;38045;52.988;6.536;2023-03-23T12:58:05;10.07;;;2.70;;
52033;SDS011;38045;52.988;6.536;2023-03-23T13:00:51;18.15;;;3.65;;
52033;SDS011;38045;52.988;6.536;2023-03-23T13:03:26;9.68;;;3.17;;
52033;SDS011;38045;52.988;6.536;2023-03-23T13:06:41;9.10;;;2.90;;
52033;SDS011;38045;52.988;6.536;2023-03-23T13:08:53;6.25;;;2.97;;
52033;SDS011;38045;52.988;6.536;2023-03-23T13:14:13;11.15;;;2.58;;
52033;SDS011;38045;52.988;6.536;2023-03-23T13:22:34;8.45;;;3.97;;
52033;SDS011;38045;52.988;6.536;2023-03-23T13:25:08;9.27;;;2.72;;
52033;SDS011;38045;52.988;6.536;2023-03-23T13:27:55;10.00;;;2.43;;
52033;SDS011;38045;52.988;6.536;2023-03-23T13:30:23;8.07;;;2.90;;
52033;SDS011;38045;52.988;6.536;2023-03-23T13:32:49;10.82;;;3.20;;
52033;SDS011;38045;52.988;6.536;2023-03-23T13:35:17;9.00;;;2.70;;
52033;SDS011;38045;52.988;6.536;2023-03-23T13:37:46;8.75;;;2.10;;
52033;SDS011;38045;52.988;6.536;2023-03-23T13:40:28;9.02;;;3.25;;
52033;SDS011;38045;52.988;6.536;2023-03-23T13:42:58;6.70;;;2.20;;
52033;SDS011;38045;52.988;6.536;2023-03-23T13:50:31;6.22;;;3.25;;
52033;SDS011;38045;52.988;6.536;2023-03-23T13:53:44;9.85;;;3.58;;
52033;SDS011;38045;52.988;6.536;2023-03-23T13:56:31;13.25;;;4.68;;
52033;SDS011;38045;52.988;6.536;2023-03-23T13:59:06;8.98;;;3.55;;
52033;SDS011;38045;52.988;6.536;2023-03-23T14:01:38;13.75;;;4.55;;
52033;SDS011;38045;52.988;6.536;2023-03-23T14:04:09;14.60;;;5.07;;
52033;SDS011;38045;52.988;6.536;2023-03-23T14:06:40;7.53;;;2.72;;
52033;SDS011;38045;52.988;6.536;2023-03-23T14:09:18;13.63;;;4.30;;
52033;SDS011;38045;52.988;6.536;2023-03-23T14:11:51;9.73;;;2.60;;
52033;SDS011;38045;52.988;6.536;2023-03-23T14:14:31;11.98;;;3.00;;
52033;SDS011;38045;52.988;6.536;2023-03-23T14:17:17;13.35;;;4.57;;
52033;SDS011;38045;52.988;6.536;2023-03-23T14:19:51;8.38;;;4.05;;
52033;SDS011;38045;52.988;6.536;2023-03-23T14:22:24;9.20;;;3.20;;
52033;SDS011;38045;52.988;6.536;2023-03-23T14:24:50;6.22;;;1.65;;
52033;SDS011;38045;52.988;6.536;2023-03-23T14:27:20;7.40;;;2.65;;
52033;SDS011;38045;52.988;6.536;2023-03-23T14:29:57;6.75;;;2.13;;
52033;SDS011;38045;52.988;6.536;2023-03-23T14:32:28;11.93;;;3.42;;
52033;SDS011;38045;52.988;6.536;2023-03-23T14:34:56;14.68;;;3.53;;
52033;SDS011;38045;52.988;6.536;2023-03-23T14:37:22;9.88;;;2.95;;
52033;SDS011;38045;52.988;6.536;2023-03-23T14:39:49;18.40;;;6.28;;
52033;SDS011;38045;52.988;6.536;2023-03-23T14:42:29;13.27;;;3.97;;
52033;SDS011;38045;52.988;6.536;2023-03-23T14:44:57;11.85;;;3.53;;
52033;SDS011;38045;52.988;6.536;2023-03-23T14:49:56;8.73;;;2.95;;
52033;SDS011;38045;52.988;6.536;2023-03-23T14:52:27;12.52;;;2.85;;
52033;SDS011;38045;52.988;6.536;2023-03-23T14:54:54;9.60;;;2.85;;
52033;SDS011;38045;52.988;6.536;2023-03-23T14:59:49;7.88;;;2.38;;
52033;SDS011;38045;52.988;6.536;2023-03-23T15:02:25;5.50;;;1.85;;
52033;SDS011;38045;52.988;6.536;2023-03-23T15:05:20;6.80;;;2.00;;
52033;SDS011;38045;52.988;6.536;2023-03-23T15:08:02;9.90;;;2.33;;
52033;SDS011;38045;52.988;6.536;2023-03-23T15:10:30;8.45;;;3.08;;
52033;SDS011;38045;52.988;6.536;2023-03-23T15:12:56;6.65;;;2.47;;
52033;SDS011;38045;52.988;6.536;2023-03-23T15:15:29;6.40;;;1.75;;
52033;SDS011;38045;52.988;6.536;2023-03-23T15:17:57;5.18;;;3.15;;
52033;SDS011;38045;52.988;6.536;2023-03-23T15:20:26;12.40;;;3.95;;
52033;SDS011;38045;52.988;6.536;2023-03-23T15:22:55;4.63;;;1.40;;
52033;SDS011;38045;52.988;6.536;2023-03-23T15:28:42;12.13;;;3.38;;
52033;SDS011;38045;52.988;6.536;2023-03-23T15:30:48;8.40;;;2.40;;
52033;SDS011;38045;52.988;6.536;2023-03-23T15:33:19;7.63;;;2.13;;
52033;SDS011;38045;52.988;6.536;2023-03-23T15:35:51;10.48;;;3.67;;
52033;SDS011;38045;52.988;6.536;2023-03-23T15:38:21;11.25;;;3.33;;
52033;SDS011;38045;52.988;6.536;2023-03-23T15:40:52;8.85;;;3.92;;
52033;SDS011;38045;52.988;6.536;2023-03-23T15:48:32;11.80;;;3.17;;
52033;SDS011;38045;52.988;6.536;2023-03-23T15:50:59;6.00;;;1.33;;
52033;SDS011;38045;52.988;6.536;2023-03-23T15:53:35;5.90;;;2.03;;
52033;SDS011;38045;52.988;6.536;2023-03-23T15:56:03;13.40;;;3.03;;
52033;SDS011;38045;52.988;6.536;2023-03-23T15:58:31;7.90;;;2.85;;
52033;SDS011;38045;52.988;6.536;2023-03-23T16:00:57;9.02;;;1.77;;
52033;SDS011;38045;52.988;6.536;2023-03-23T16:03:26;11.45;;;3.08;;
52033;SDS011;38045;52.988;6.536;2023-03-23T16:08:21;9.98;;;3.53;;
52033;SDS011;38045;52.988;6.536;2023-03-23T16:10:47;7.97;;;3.08;;
52033;SDS011;38045;52.988;6.536;2023-03-23T16:13:13;10.25;;;2.78;;
52033;SDS011;38045;52.988;6.536;2023-03-23T16:15:39;12.48;;;4.07;;
52033;SDS011;38045;52.988;6.536;2023-03-23T16:18:05;12.07;;;1.38;;
52033;SDS011;38045;52.988;6.536;2023-03-23T16:20:30;5.35;;;2.03;;
52033;SDS011;38045;52.988;6.536;2023-03-23T16:22:57;7.30;;;2.92;;
52033;SDS011;38045;52.988;6.536;2023-03-23T16:25:23;11.10;;;2.63;;
52033;SDS011;38045;52.988;6.536;2023-03-23T16:27:49;7.18;;;2.40;;
52033;SDS011;38045;52.988;6.536;2023-03-23T16:30:16;11.95;;;3.80;;
52033;SDS011;38045;52.988;6.536;2023-03-23T16:32:43;15.47;;;3.83;;
52033;SDS011;38045;52.988;6.536;2023-03-23T16:35:11;8.95;;;2.60;;
52033;SDS011;38045;52.988;6.536;2023-03-23T16:37:37;9.93;;;4.30;;
52033;SDS011;38045;52.988;6.536;2023-03-23T16:40:04;5.60;;;3.13;;
52033;SDS011;38045;52.988;6.536;2023-03-23T16:42:31;4.85;;;2.22;;
52033;SDS011;38045;52.988;6.536;2023-03-23T16:44:57;6.80;;;2.28;;
52033;SDS011;38045;52.988;6.536;2023-03-23T16:47:23;11.68;;;3.97;;
52033;SDS011;38045;52.988;6.536;2023-03-23T16:49:50;7.88;;;2.45;;
52033;SDS011;38045;52.988;6.536;2023-03-23T16:52:16;7.53;;;2.13;;
52033;SDS011;38045;52.988;6.536;2023-03-23T16:54:42;12.48;;;2.65;;
52033;SDS011;38045;52.988;6.536;2023-03-23T16:57:08;12.68;;;2.70;;
52033;SDS011;38045;52.988;6.536;2023-03-23T16:59:33;15.65;;;3.65;;